sensor_id;sensor_type;location;lat;lon;timestamp;pressure;altitude;pressure_sealevel;temperature;humidity
12475;BME280;6302;42.624;23.334;2023-05-29T00:01:44;93109.97;;;13.92;100.00
12475;BME280;6302;42.624;23.334;2023-05-29T00:04:11;93115.38;;;13.88;100.00
12475;BME280;6302;42.624;23.334;2023-05-29T00:06:38;93112.69;;;13.88;100.00
12475;BME280;6302;42.624;23.334;2023-05-29T00:09:06;93107.03;;;13.86;100.00
12475;BME280;6302;42.624;23.334;2023-05-29T00:11:33;93111.63;;;13.86;100.00
12475;BME280;6302;42.624;23.334;2023-05-29T00:14:00;93108.28;;;13.82;100.00
12475;BME280;6302;42.624;23.334;2023-05-29T00:16:27;93102.22;;;13.81;100.00
12475;BME280;6302;42.624;23.334;2023-05-29T00:18:54;93110.97;;;13.82;100.00
12475;BME280;6302;42.624;23.334;2023-05-29T00:21:21;93115.59;;;13.78;100.00
12475;BME280;6302;42.624;23.334;2023-05-29T00:23:48;93114.13;;;13.77;100.00
12475;BME280;6302;42.624;23.334;2023-05-29T00:26:16;93118.63;;;13.80;100.00
12475;BME280;6302;42.624;23.334;2023-05-29T00:28:43;93117.94;;;13.76;100.00
12475;BME280;6302;42.624;23.334;2023-05-29T00:31:10;93113.03;;;13.74;100.00
12475;BME280;6302;42.624;23.334;2023-05-29T00:33:37;93113.47;;;13.73;100.00
12475;BME280;6302;42.624;23.334;2023-05-29T00:36:04;93109.63;;;13.74;100.00
12475;BME280;6302;42.624;23.334;2023-05-29T00:38:31;93114.94;;;13.74;100.00
12475;BME280;6302;42.624;23.334;2023-05-29T00:40:57;93107.38;;;13.72;100.00
12475;BME280;6302;42.624;23.334;2023-05-29T00:43:26;93113.47;;;13.73;100.00
12475;BME280;6302;42.624;23.334;2023-05-29T00:45:53;93111.94;;;13.72;100.00
12475;BME280;6302;42.624;23.334;2023-05-29T00:48:19;93106.63;;;13.72;100.00
12475;BME280;6302;42.624;23.334;2023-05-29T00:50:46;93109.28;;;13.72;100.00
12475;BME280;6302;42.624;23.334;2023-05-29T00:53:14;93103.53;;;13.73;100.00
12475;BME280;6302;42.624;23.334;2023-05-29T00:55:41;93098.97;;;13.74;100.00
12475;BME280;6302;42.624;23.334;2023-05-29T00:58:08;93097.47;;;13.73;100.00
12475;BME280;6302;42.624;23.334;2023-05-29T01:00:36;93097.47;;;13.73;100.00
12475;BME280;6302;42.624;23.334;2023-05-29T01:03:04;93097.13;;;13.70;100.00
12475;BME280;6302;42.624;23.334;2023-05-29T01:05:34;93087.31;;;13.67;100.00
12475;BME280;6302;42.624;23.334;2023-05-29T01:08:01;93089.63;;;13.65;100.00
12475;BME280;6302;42.624;23.334;2023-05-29T01:10:28;93088.56;;;13.63;100.00
12475;BME280;6302;42.624;23.334;2023-05-29T01:13:03;93094.31;;;13.61;100.00
12475;BME280;6302;42.624;23.334;2023-05-29T01:15:41;93091.69;;;13.58;100.00
12475;BME280;6302;42.624;23.334;2023-05-29T01:18:26;93090.28;;;13.53;100.00
12475;BME280;6302;42.624;23.334;2023-05-29T01:21:03;93091.13;;;13.50;100.00
12475;BME280;6302;42.624;23.334;2023-05-29T01:24:08;93095.72;;;13.50;100.00
12475;BME280;6302;42.624;23.334;2023-05-29T01:26:49;93101.84;;;13.47;100.00
12475;BME280;6302;42.624;23.334;2023-05-29T01:29:19;93100.78;;;13.44;100.00
12475;BME280;6302;42.624;23.334;2023-05-29T01:31:49;93108.41;;;13.42;100.00
12475;BME280;6302;42.624;23.334;2023-05-29T01:34:16;93103.91;;;13.39;100.00
12475;BME280;6302;42.624;23.334;2023-05-29T01:36:43;93102.06;;;13.36;100.00
12475;BME280;6302;42.624;23.334;2023-05-29T01:39:12;93108.91;;;13.37;100.00
12475;BME280;6302;42.624;23.334;2023-05-29T01:41:40;93105.16;;;13.35;100.00
12475;BME280;6302;42.624;23.334;2023-05-29T01:44:09;93103.25;;;13.35;100.00
12475;BME280;6302;42.624;23.334;2023-05-29T01:46:38;93092.63;;;13.35;100.00
12475;BME280;6302;42.624;23.334;2023-05-29T01:49:05;93090.69;;;13.36;100.00
12475;BME280;6302;42.624;23.334;2023-05-29T01:51:33;93096.75;;;13.36;100.00
12475;BME280;6302;42.624;23.334;2023-05-29T01:54:01;93094.44;;;13.38;100.00
12475;BME280;6302;42.624;23.334;2023-05-29T01:56:28;93066.28;;;13.21;100.00
12475;BME280;6302;42.624;23.334;2023-05-29T01:58:56;93086.81;;;13.40;100.00
12475;BME280;6302;42.624;23.334;2023-05-29T02:01:25;93092.03;;;13.44;100.00
12475;BME280;6302;42.624;23.334;2023-05-29T02:03:52;93092.34;;;13.46;100.00
12475;BME280;6302;42.624;23.334;2023-05-29T02:06:19;93098.03;;;13.48;100.00
12475;BME280;6302;42.624;23.334;2023-05-29T02:08:47;93097.94;;;13.51;100.00
12475;BME280;6302;42.624;23.334;2023-05-29T02:11:13;93088.81;;;13.52;100.00
12475;BME280;6302;42.624;23.334;2023-05-29T02:13:41;93083.38;;;13.56;100.00
12475;BME280;6302;42.624;23.334;2023-05-29T02:16:08;93090.22;;;13.57;100.00
12475;BME280;6302;42.624;23.334;2023-05-29T02:18:36;93083.38;;;13.56;100.00
12475;BME280;6302;42.624;23.334;2023-05-29T02:21:03;93082.13;;;13.60;100.00
12475;BME280;6302;42.624;23.334;2023-05-29T02:23:30;93091.63;;;13.61;100.00
12475;BME280;6302;42.624;23.334;2023-05-29T02:25:56;93086.31;;;13.61;100.00
12475;BME280;6302;42.624;23.334;2023-05-29T02:28:23;93089.41;;;13.60;100.00
12475;BME280;6302;42.624;23.334;2023-05-29T02:30:50;93093.22;;;13.59;100.00
12475;BME280;6302;42.624;23.334;2023-05-29T02:33:17;93087.47;;;13.60;100.00
12475;BME280;6302;42.624;23.334;2023-05-29T02:35:45;93090.22;;;13.57;100.00
12475;BME280;6302;42.624;23.334;2023-05-29T02:38:12;93098.59;;;13.55;100.00
12475;BME280;6302;42.624;23.334;2023-05-29T02:40:39;93093.28;;;13.55;100.00
12475;BME280;6302;42.624;23.334;2023-05-29T02:43:07;93094.03;;;13.56;100.00
12475;BME280;6302;42.624;23.334;2023-05-29T02:45:34;93098.97;;;13.57;100.00
12475;BME280;6302;42.624;23.334;2023-05-29T02:48:01;93099.38;;;13.56;100.00
12475;BME280;6302;42.624;23.334;2023-05-29T02:50:29;93100.94;;;13.53;100.00
12475;BME280;6302;42.624;23.334;2023-05-29T02:52:57;93094.13;;;13.52;100.00
12475;BME280;6302;42.624;23.334;2023-05-29T02:55:24;93096.47;;;13.50;100.00
12475;BME280;6302;42.624;23.334;2023-05-29T02:57:50;93097.94;;;13.51;100.00
12475;BME280;6302;42.624;23.334;2023-05-29T03:00:20;93097.63;;;13.49;100.00
12475;BME280;6302;42.624;23.334;2023-05-29T03:02:47;93091.97;;;13.47;100.00
12475;BME280;6302;42.624;23.334;2023-05-29T03:05:13;93107.94;;;13.47;100.00
12475;BME280;6302;42.624;23.334;2023-05-29T03:07:42;93100.34;;;13.46;100.00
12475;BME280;6302;42.624;23.334;2023-05-29T03:10:10;93108.31;;;13.46;100.00
12475;BME280;6302;42.624;23.334;2023-05-29T03:12:37;93112.06;;;13.48;100.00
12475;BME280;6302;42.624;23.334;2023-05-29T03:15:05;93105.59;;;13.49;100.00
12475;BME280;6302;42.624;23.334;2023-05-29T03:17:33;93113.16;;;13.51;100.00
12475;BME280;6302;42.624;23.334;2023-05-29T03:20:02;93113.09;;;13.54;100.00
12475;BME280;6302;42.624;23.334;2023-05-29T03:22:31;93103.78;;;13.62;100.00
12475;BME280;6302;42.624;23.334;2023-05-29T03:24:58;93106.63;;;13.72;100.00
12475;BME280;6302;42.624;23.334;2023-05-29T03:27:26;93105.31;;;13.80;100.00
12475;BME280;6302;42.624;23.334;2023-05-29T03:29:54;93095.63;;;13.86;100.00
12475;BME280;6302;42.624;23.334;2023-05-29T03:32:21;93106.38;;;13.98;100.00
12475;BME280;6302;42.624;23.334;2023-05-29T03:34:48;93108.13;;;14.05;100.00
12475;BME280;6302;42.624;23.334;2023-05-29T03:37:14;93118.25;;;14.10;100.00
12475;BME280;6302;42.624;23.334;2023-05-29T03:39:41;93116.28;;;14.14;100.00
12475;BME280;6302;42.624;23.334;2023-05-29T03:42:08;93121.63;;;14.14;100.00
12475;BME280;6302;42.624;23.334;2023-05-29T03:44:36;93126.13;;;14.17;100.00
12475;BME280;6302;42.624;23.334;2023-05-29T03:47:03;93132.09;;;14.21;100.00
12475;BME280;6302;42.624;23.334;2023-05-29T03:49:30;93136.59;;;14.24;100.00
12475;BME280;6302;42.624;23.334;2023-05-29T03:51:57;93137.56;;;14.30;100.00
12475;BME280;6302;42.624;23.334;2023-05-29T03:54:24;93134.44;;;14.35;100.00
12475;BME280;6302;42.624;23.334;2023-05-29T03:56:51;93138.50;;;14.40;100.00
12475;BME280;6302;42.624;23.334;2023-05-29T03:59:17;93145.59;;;14.46;100.00
12475;BME280;6302;42.624;23.334;2023-05-29T04:01:46;93146.25;;;14.50;100.00
12475;BME280;6302;42.624;23.334;2023-05-29T04:04:13;93149.91;;;14.56;100.00
12475;BME280;6302;42.624;23.334;2023-05-29T04:06:39;93147.47;;;14.62;100.00
12475;BME280;6302;42.624;23.334;2023-05-29T04:09:07;93154.56;;;14.68;100.00
12475;BME280;6302;42.624;23.334;2023-05-29T04:11:34;93152.84;;;14.74;100.00
12475;BME280;6302;42.624;23.334;2023-05-29T04:14:01;93146.59;;;14.81;100.00
12475;BME280;6302;42.624;23.334;2023-05-29T04:16:28;93148.66;;;14.89;100.00
12475;BME280;6302;42.624;23.334;2023-05-29T04:18:56;93154.56;;;14.97;100.00
12475;BME280;6302;42.624;23.334;2023-05-29T04:21:23;93152.44;;;15.05;100.00
12475;BME280;6302;42.624;23.334;2023-05-29T04:23:50;93145.75;;;15.13;100.00
12475;BME280;6302;42.624;23.334;2023-05-29T04:26:16;93151.63;;;15.20;100.00
12475;BME280;6302;42.624;23.334;2023-05-29T04:28:43;93158.38;;;15.25;100.00
12475;BME280;6302;42.624;23.334;2023-05-29T04:31:10;93153.25;;;15.30;100.00
12475;BME280;6302;42.624;23.334;2023-05-29T04:33:39;93150.81;;;15.36;100.00
12475;BME280;6302;42.624;23.334;2023-05-29T04:36:08;93158.63;;;15.43;100.00
12475;BME280;6302;42.624;23.334;2023-05-29T04:38:36;93155.13;;;15.46;100.00
12475;BME280;6302;42.624;23.334;2023-05-29T04:41:03;93163.78;;;15.50;100.00
12475;BME280;6302;42.624;23.334;2023-05-29T04:43:30;93162.00;;;15.59;100.00
12475;BME280;6302;42.624;23.334;2023-05-29T04:45:57;93164.00;;;15.68;100.00
12475;BME280;6302;42.624;23.334;2023-05-29T04:48:23;93159.88;;;15.80;100.00
12475;BME280;6302;42.624;23.334;2023-05-29T04:50:51;93171.19;;;15.96;100.00
12475;BME280;6302;42.624;23.334;2023-05-29T04:53:19;93163.38;;;16.14;100.00
12475;BME280;6302;42.624;23.334;2023-05-29T04:55:46;93167.94;;;16.39;100.00
12475;BME280;6302;42.624;23.334;2023-05-29T04:58:13;93172.63;;;16.60;100.00
12475;BME280;6302;42.624;23.334;2023-05-29T05:00:39;93175.91;;;16.77;100.00
12475;BME280;6302;42.624;23.334;2023-05-29T05:03:07;93181.66;;;16.88;100.00
12475;BME280;6302;42.624;23.334;2023-05-29T05:05:35;93197.97;;;17.03;100.00
12475;BME280;6302;42.624;23.334;2023-05-29T05:08:02;93189.59;;;17.13;100.00
12475;BME280;6302;42.624;23.334;2023-05-29T05:10:30;93194.41;;;17.18;100.00
12475;BME280;6302;42.624;23.334;2023-05-29T05:12:57;93199.16;;;17.23;100.00
12475;BME280;6302;42.624;23.334;2023-05-29T05:15:24;93201.22;;;17.19;100.00
12475;BME280;6302;42.624;23.334;2023-05-29T05:17:51;93205.72;;;17.22;100.00
12475;BME280;6302;42.624;23.334;2023-05-29T05:20:18;93211.06;;;17.22;100.00
12475;BME280;6302;42.624;23.334;2023-05-29T05:22:45;93202.47;;;17.27;100.00
12475;BME280;6302;42.624;23.334;2023-05-29T05:25:11;93204.97;;;17.43;100.00
12475;BME280;6302;42.624;23.334;2023-05-29T05:27:40;93206.75;;;17.59;100.00
12475;BME280;6302;42.624;23.334;2023-05-29T05:30:07;93205.94;;;17.80;100.00
12475;BME280;6302;42.624;23.334;2023-05-29T05:32:34;93210.94;;;17.91;100.00
12475;BME280;6302;42.624;23.334;2023-05-29T05:35:01;93214.53;;;17.97;100.00
12475;BME280;6302;42.624;23.334;2023-05-29T05:37:28;93206.03;;;17.89;100.00
12475;BME280;6302;42.624;23.334;2023-05-29T05:39:55;93201.56;;;17.95;100.00
12475;BME280;6302;42.624;23.334;2023-05-29T05:42:23;93210.97;;;18.00;100.00
12475;BME280;6302;42.624;23.334;2023-05-29T05:44:52;93206.84;;;18.08;100.00
12475;BME280;6302;42.624;23.334;2023-05-29T05:47:19;93205.50;;;18.12;100.00
12475;BME280;6302;42.624;23.334;2023-05-29T05:49:45;93206.75;;;18.20;100.00
12475;BME280;6302;42.624;23.334;2023-05-29T05:52:12;93206.91;;;18.26;100.00
12475;BME280;6302;42.624;23.334;2023-05-29T05:54:39;93208.84;;;18.26;100.00
12475;BME280;6302;42.624;23.334;2023-05-29T05:57:06;93211.06;;;18.27;100.00
12475;BME280;6302;42.624;23.334;2023-05-29T05:59:32;93213.66;;;18.00;100.00
12475;BME280;6302;42.624;23.334;2023-05-29T06:02:01;93217.16;;;17.88;100.00
12475;BME280;6302;42.624;23.334;2023-05-29T06:04:29;93215.94;;;17.80;100.00
12475;BME280;6302;42.624;23.334;2023-05-29T06:06:56;93219.19;;;17.75;100.00
12475;BME280;6302;42.624;23.334;2023-05-29T06:09:22;93216.78;;;17.68;100.00
12475;BME280;6302;42.624;23.334;2023-05-29T06:11:51;93217.50;;;17.68;100.00
12475;BME280;6302;42.624;23.334;2023-05-29T06:14:18;93213.19;;;17.49;100.00
12475;BME280;6302;42.624;23.334;2023-05-29T06:16:45;93214.69;;;17.50;100.00
12475;BME280;6302;42.624;23.334;2023-05-29T06:19:13;93218.31;;;17.56;100.00
12475;BME280;6302;42.624;23.334;2023-05-29T06:21:40;93215.84;;;17.62;100.00
12475;BME280;6302;42.624;23.334;2023-05-29T06:24:07;93218.00;;;17.76;100.00
12475;BME280;6302;42.624;23.334;2023-05-29T06:26:34;93212.81;;;17.81;100.00
12475;BME280;6302;42.624;23.334;2023-05-29T06:29:01;93225.53;;;17.90;100.00
12475;BME280;6302;42.624;23.334;2023-05-29T06:31:28;93218.00;;;18.06;100.00
12475;BME280;6302;42.624;23.334;2023-05-29T06:33:55;93221.00;;;18.08;100.00
12475;BME280;6302;42.624;23.334;2023-05-29T06:36:23;93221.91;;;17.84;100.00
12475;BME280;6302;42.624;23.334;2023-05-29T06:38:51;93227.41;;;17.59;100.00
12475;BME280;6302;42.624;23.334;2023-05-29T06:41:18;93228.38;;;17.65;100.00
12475;BME280;6302;42.624;23.334;2023-05-29T06:43:45;93220.06;;;17.72;100.00
12475;BME280;6302;42.624;23.334;2023-05-29T06:46:11;93225.38;;;17.93;100.00
12475;BME280;6302;42.624;23.334;2023-05-29T06:48:38;93223.31;;;18.28;100.00
12475;BME280;6302;42.624;23.334;2023-05-29T06:51:05;93219.53;;;18.47;100.00
12475;BME280;6302;42.624;23.334;2023-05-29T06:53:35;93223.31;;;18.59;100.00
12475;BME280;6302;42.624;23.334;2023-05-29T06:56:02;93220.38;;;18.44;100.00
12475;BME280;6302;42.624;23.334;2023-05-29T06:58:29;93228.78;;;18.46;100.00
12475;BME280;6302;42.624;23.334;2023-05-29T07:00:57;93229.41;;;18.59;100.00
12475;BME280;6302;42.624;23.334;2023-05-29T07:03:24;93224.38;;;18.70;100.00
12475;BME280;6302;42.624;23.334;2023-05-29T07:05:51;93230.03;;;18.72;100.00
12475;BME280;6302;42.624;23.334;2023-05-29T07:08:18;93224.34;;;18.61;100.00
12475;BME280;6302;42.624;23.334;2023-05-29T07:10:46;93229.72;;;18.70;100.00
12475;BME280;6302;42.624;23.334;2023-05-29T07:13:15;93228.56;;;18.80;100.00
12475;BME280;6302;42.624;23.334;2023-05-29T07:15:43;93227.09;;;18.89;100.00
12475;BME280;6302;42.624;23.334;2023-05-29T07:18:10;93239.13;;;18.75;100.00
12475;BME280;6302;42.624;23.334;2023-05-29T07:20:37;93238.19;;;18.60;100.00
12475;BME280;6302;42.624;23.334;2023-05-29T07:23:03;93229.25;;;18.54;100.00
12475;BME280;6302;42.624;23.334;2023-05-29T07:25:30;93237.13;;;18.48;100.00
12475;BME280;6302;42.624;23.334;2023-05-29T07:27:59;93231.66;;;18.30;100.00
12475;BME280;6302;42.624;23.334;2023-05-29T07:30:26;93225.13;;;18.40;100.00
12475;BME280;6302;42.624;23.334;2023-05-29T07:32:52;93231.94;;;18.23;100.00
12475;BME280;6302;42.624;23.334;2023-05-29T07:35:19;93235.88;;;18.40;100.00
12475;BME280;6302;42.624;23.334;2023-05-29T07:37:47;93227.69;;;18.44;100.00
12475;BME280;6302;42.624;23.334;2023-05-29T07:40:15;93228.34;;;18.57;100.00
12475;BME280;6302;42.624;23.334;2023-05-29T07:42:42;93232.53;;;18.67;100.00
12475;BME280;6302;42.624;23.334;2023-05-29T07:45:10;93183.19;;;18.55;100.00
12475;BME280;6302;42.624;23.334;2023-05-29T07:47:37;93225.28;;;18.95;100.00
12475;BME280;6302;42.624;23.334;2023-05-29T07:50:06;93225.88;;;18.99;100.00
12475;BME280;6302;42.624;23.334;2023-05-29T07:52:34;93233.50;;;19.00;100.00
12475;BME280;6302;42.624;23.334;2023-05-29T07:55:01;93226.47;;;18.84;100.00
12475;BME280;6302;42.624;23.334;2023-05-29T07:57:28;93219.63;;;18.83;100.00
12475;BME280;6302;42.624;23.334;2023-05-29T07:59:56;93227.34;;;18.81;100.00
12475;BME280;6302;42.624;23.334;2023-05-29T08:02:24;93229.44;;;18.77;100.00
12475;BME280;6302;42.624;23.334;2023-05-29T08:04:51;93228.69;;;18.68;100.00
12475;BME280;6302;42.624;23.334;2023-05-29T08:07:18;93228.84;;;18.82;100.00
12475;BME280;6302;42.624;23.334;2023-05-29T08:09:45;93233.66;;;18.97;100.00
12475;BME280;6302;42.624;23.334;2023-05-29T08:12:12;93231.56;;;18.92;100.00
12475;BME280;6302;42.624;23.334;2023-05-29T08:14:39;93234.69;;;18.81;100.00
12475;BME280;6302;42.624;23.334;2023-05-29T08:17:05;93236.03;;;18.86;100.00
12475;BME280;6302;42.624;23.334;2023-05-29T08:19:34;93236.19;;;19.00;100.00
12475;BME280;6302;42.624;23.334;2023-05-29T08:22:00;93236.94;;;19.19;100.00
12475;BME280;6302;42.624;23.334;2023-05-29T08:24:27;93241.44;;;19.22;100.00
12475;BME280;6302;42.624;23.334;2023-05-29T08:26:54;93237.69;;;19.19;100.00
12475;BME280;6302;42.624;23.334;2023-05-29T08:29:21;93238.75;;;19.22;100.00
12475;BME280;6302;42.624;23.334;2023-05-29T08:31:48;93241.47;;;19.40;100.00
12475;BME280;6302;42.624;23.334;2023-05-29T08:34:15;93246.09;;;19.58;100.00
12475;BME280;6302;42.624;23.334;2023-05-29T08:36:43;93252.78;;;19.53;100.00
12475;BME280;6302;42.624;23.334;2023-05-29T08:39:10;93245.06;;;19.55;100.00
12475;BME280;6302;42.624;23.334;2023-05-29T08:41:49;93249.53;;;19.49;100.00
12475;BME280;6302;42.624;23.334;2023-05-29T08:44:21;93239.69;;;19.37;100.00
12475;BME280;6302;42.624;23.334;2023-05-29T08:46:49;93239.50;;;19.31;100.00
12475;BME280;6302;42.624;23.334;2023-05-29T08:49:21;93236.38;;;19.42;100.00
12475;BME280;6302;42.624;23.334;2023-05-29T08:51:57;93232.66;;;19.48;100.00
12475;BME280;6302;42.624;23.334;2023-05-29T08:54:30;93223.75;;;19.93;100.00
12475;BME280;6302;42.624;23.334;2023-05-29T08:56:58;93230.50;;;20.49;100.00
12475;BME280;6302;42.624;23.334;2023-05-29T08:59:25;93224.16;;;20.61;100.00
12475;BME280;6302;42.624;23.334;2023-05-29T09:01:52;93220.53;;;20.22;100.00
12475;BME280;6302;42.624;23.334;2023-05-29T09:04:19;93215.38;;;20.00;100.00
12475;BME280;6302;42.624;23.334;2023-05-29T09:06:46;93226.44;;;19.93;100.00
12475;BME280;6302;42.624;23.334;2023-05-29T09:09:15;93225.28;;;19.85;100.00
12475;BME280;6302;42.624;23.334;2023-05-29T09:11:43;93219.81;;;20.12;100.00
12475;BME280;6302;42.624;23.334;2023-05-29T09:14:11;93220.56;;;20.55;100.00
12475;BME280;6302;42.624;23.334;2023-05-29T09:16:58;93225.72;;;20.44;100.00
12475;BME280;6302;42.624;23.334;2023-05-29T09:19:25;93213.81;;;20.18;100.00
12475;BME280;6302;42.624;23.334;2023-05-29T09:22:00;93209.19;;;20.18;100.00
12475;BME280;6302;42.624;23.334;2023-05-29T09:24:28;93203.06;;;20.27;100.00
12475;BME280;6302;42.624;23.334;2023-05-29T09:26:56;93206.91;;;20.35;100.00
12475;BME280;6302;42.624;23.334;2023-05-29T09:29:23;93201.38;;;20.38;100.00
12475;BME280;6302;42.624;23.334;2023-05-29T09:31:50;93193.75;;;20.37;100.00
12475;BME280;6302;42.624;23.334;2023-05-29T09:34:17;93192.88;;;20.31;100.00
12475;BME280;6302;42.624;23.334;2023-05-29T09:36:44;93205.88;;;20.32;100.00
12475;BME280;6302;42.624;23.334;2023-05-29T09:39:10;93193.22;;;20.24;100.00
12475;BME280;6302;42.624;23.334;2023-05-29T09:41:43;93190.34;;;20.60;100.00
12475;BME280;6302;42.624;23.334;2023-05-29T09:44:12;93196.03;;;21.09;100.00
12475;BME280;6302;42.624;23.334;2023-05-29T09:46:39;93183.28;;;21.48;100.00
12475;BME280;6302;42.624;23.334;2023-05-29T09:49:10;93187.75;;;21.66;100.00
12475;BME280;6302;42.624;23.334;2023-05-29T09:51:38;93181.72;;;21.56;100.00
12475;BME280;6302;42.624;23.334;2023-05-29T09:54:15;93183.34;;;21.24;100.00
12475;BME280;6302;42.624;23.334;2023-05-29T09:56:44;93178.13;;;20.97;100.00
12475;BME280;6302;42.624;23.334;2023-05-29T09:59:12;93174.28;;;20.89;100.00
12475;BME280;6302;42.624;23.334;2023-05-29T10:01:41;93180.38;;;20.75;100.00
12475;BME280;6302;42.624;23.334;2023-05-29T10:04:10;93174.63;;;20.82;100.00
12475;BME280;6302;42.624;23.334;2023-05-29T10:06:38;93173.44;;;20.83;100.00
12475;BME280;6302;42.624;23.334;2023-05-29T10:09:09;93181.88;;;20.76;100.00
12475;BME280;6302;42.624;23.334;2023-05-29T10:11:40;93185.75;;;20.75;100.00
12475;BME280;6302;42.624;23.334;2023-05-29T10:14:10;93183.81;;;20.75;100.00
12475;BME280;6302;42.624;23.334;2023-05-29T10:16:42;93177.97;;;20.77;100.00
12475;BME280;6302;42.624;23.334;2023-05-29T10:19:12;93178.69;;;21.01;100.00
12475;BME280;6302;42.624;23.334;2023-05-29T10:21:40;93182.19;;;21.16;96.92
12475;BME280;6302;42.624;23.334;2023-05-29T10:24:08;93174.63;;;21.44;98.69
12475;BME280;6302;42.624;23.334;2023-05-29T10:26:39;93173.72;;;21.62;98.80
12475;BME280;6302;42.624;23.334;2023-05-29T10:29:13;93169.44;;;21.70;100.00
12475;BME280;6302;42.624;23.334;2023-05-29T10:31:52;93164.16;;;21.90;98.17
12475;BME280;6302;42.624;23.334;2023-05-29T10:34:30;93163.56;;;22.15;94.01
12475;BME280;6302;42.624;23.334;2023-05-29T10:37:03;93157.06;;;22.22;97.20
12475;BME280;6302;42.624;23.334;2023-05-29T10:39:32;93156.09;;;22.25;91.92
12475;BME280;6302;42.624;23.334;2023-05-29T10:42:00;93160.22;;;22.20;95.20
12475;BME280;6302;42.624;23.334;2023-05-29T10:44:46;93159.84;;;22.13;95.76
12475;BME280;6302;42.624;23.334;2023-05-29T10:47:22;93162.19;;;22.05;99.01
12475;BME280;6302;42.624;23.334;2023-05-29T10:49:49;93164.69;;;22.09;99.01
12475;BME280;6302;42.624;23.334;2023-05-29T10:52:18;93159.88;;;21.98;94.73
12475;BME280;6302;42.624;23.334;2023-05-29T10:54:53;93163.13;;;21.87;93.28
12475;BME280;6302;42.624;23.334;2023-05-29T10:57:21;93151.94;;;21.65;100.00
12475;BME280;6302;42.624;23.334;2023-05-29T10:59:59;93149.94;;;21.60;100.00
12475;BME280;6302;42.624;23.334;2023-05-29T11:02:29;93149.06;;;21.54;100.00
12475;BME280;6302;42.624;23.334;2023-05-29T11:07:55;93135.38;;;21.43;100.00
12475;BME280;6302;42.624;23.334;2023-05-29T11:13:31;93127.41;;;21.34;100.00
12475;BME280;6302;42.624;23.334;2023-05-29T11:16:19;93129.28;;;21.43;100.00
12475;BME280;6302;42.624;23.334;2023-05-29T11:18:47;93132.63;;;21.37;100.00
12475;BME280;6302;42.624;23.334;2023-05-29T11:21:30;93134.84;;;21.39;100.00
12475;BME280;6302;42.624;23.334;2023-05-29T11:24:00;93130.19;;;21.39;100.00
12475;BME280;6302;42.624;23.334;2023-05-29T11:26:29;93122.47;;;21.47;100.00
12475;BME280;6302;42.624;23.334;2023-05-29T11:28:59;93117.56;;;21.75;100.00
12475;BME280;6302;42.624;23.334;2023-05-29T11:31:28;93110.50;;;21.92;100.00
12475;BME280;6302;42.624;23.334;2023-05-29T11:34:00;93117.91;;;22.12;100.00
12475;BME280;6302;42.624;23.334;2023-05-29T11:36:30;93112.28;;;22.15;100.00
12475;BME280;6302;42.624;23.334;2023-05-29T11:38:58;93110.41;;;22.21;100.00
12475;BME280;6302;42.624;23.334;2023-05-29T11:41:25;93120.97;;;22.39;100.00
12475;BME280;6302;42.624;23.334;2023-05-29T11:43:59;93123.66;;;22.19;100.00
12475;BME280;6302;42.624;23.334;2023-05-29T11:46:30;93117.16;;;22.11;100.00
12475;BME280;6302;42.624;23.334;2023-05-29T11:48:58;93113.19;;;22.27;100.00
12475;BME280;6302;42.624;23.334;2023-05-29T11:51:25;93108.69;;;22.38;100.00
12475;BME280;6302;42.624;23.334;2023-05-29T11:53:52;93102.34;;;22.41;100.00
12475;BME280;6302;42.624;23.334;2023-05-29T11:56:23;93097.19;;;22.23;100.00
12475;BME280;6302;42.624;23.334;2023-05-29T11:58:50;93101.34;;;22.04;100.00
12475;BME280;6302;42.624;23.334;2023-05-29T12:01:21;93105.91;;;21.83;100.00
12475;BME280;6302;42.624;23.334;2023-05-29T12:03:50;93121.25;;;21.63;100.00
12475;BME280;6302;42.624;23.334;2023-05-29T12:06:30;93124.91;;;21.30;100.00
12475;BME280;6302;42.624;23.334;2023-05-29T12:08:58;93140.03;;;20.42;100.00
12475;BME280;6302;42.624;23.334;2023-05-29T12:11:26;93183.16;;;19.82;100.00
12475;BME280;6302;42.624;23.334;2023-05-29T12:13:56;93142.66;;;19.08;100.00
12475;BME280;6302;42.624;23.334;2023-05-29T12:16:23;93126.84;;;18.82;100.00
12475;BME280;6302;42.624;23.334;2023-05-29T12:18:53;93122.06;;;18.87;100.00
12475;BME280;6302;42.624;23.334;2023-05-29T12:21:21;93118.19;;;18.88;100.00
12475;BME280;6302;42.624;23.334;2023-05-29T12:23:48;93120.56;;;18.95;100.00
12475;BME280;6302;42.624;23.334;2023-05-29T12:26:15;93121.75;;;18.94;100.00
12475;BME280;6302;42.624;23.334;2023-05-29T12:28:43;93126.84;;;19.01;100.00
12475;BME280;6302;42.624;23.334;2023-05-29T12:31:10;93118.31;;;19.02;100.00
12475;BME280;6302;42.624;23.334;2023-05-29T12:33:42;93112.50;;;19.04;100.00
12475;BME280;6302;42.624;23.334;2023-05-29T12:36:12;93124.41;;;19.21;100.00
12475;BME280;6302;42.624;23.334;2023-05-29T12:38:47;93120.84;;;19.33;100.00
12475;BME280;6302;42.624;23.334;2023-05-29T12:41:23;93117.41;;;19.23;100.00
12475;BME280;6302;42.624;23.334;2023-05-29T12:43:53;93109.34;;;19.14;100.00
12475;BME280;6302;42.624;23.334;2023-05-29T12:46:20;93115.78;;;18.90;100.00
12475;BME280;6302;42.624;23.334;2023-05-29T12:48:47;93104.00;;;18.96;100.00
12475;BME280;6302;42.624;23.334;2023-05-29T12:51:18;93108.94;;;18.98;100.00
12475;BME280;6302;42.624;23.334;2023-05-29T12:53:48;93120.56;;;19.04;100.00
12475;BME280;6302;42.624;23.334;2023-05-29T12:56:15;93121.47;;;18.82;100.00
12475;BME280;6302;42.624;23.334;2023-05-29T12:58:42;93123.09;;;18.62;100.00
12475;BME280;6302;42.624;23.334;2023-05-29T13:01:12;93135.16;;;18.57;100.00
12475;BME280;6302;42.624;23.334;2023-05-29T13:03:40;93146.00;;;18.36;100.00